tititudorancea.com
Station Historical Data
Daily Summary for April 15, 2018 Units:  Metric    English   Both
« Previous Day
Next Day »
Daily Weekly Monthly Yearly Custom
  High: Low: Average:
Temperature: -17.8 °C 10.7 °C 14.2 °C
Dew Point: -17.8 °C 7.7 °C 10.9 °C
Humidity: Humidity % 72 % 80 %
Wind Speed: 0 km/h 0 km/h 9.5 km/h
Wind Gust: 0 km/h - -
Wind:- - WNW
Pressure: 0 hPa 1000.2 hPa -
Precipitation: 0.25 mm    
Historical Graphs
 
 
Ararat weather Find more about Weather in Ararat, AU


 



 


Tabular Data for April 15, 2018
Time Temperature Dew Point Pressure Wind Wind Speed Wind Gust Humidity Rainfall Rate (Hourly)
-17.8 °C -17.8 °C 0 hPa Calm     Humidity % 0 mm
00:01 11 °C 8.4 °C 1001.6 hPa West 11.4 km/h 17.7 km/h 84 % 0.25 mm
00:06 10.9 °C 8.4 °C 1001.6 hPa WNW 9 km/h 11.3 km/h 85 % 0.25 mm
00:11 10.8 °C 8.6 °C 1001.6 hPa WNW 16.7 km/h 27.8 km/h 86 % 0.25 mm
00:16 10.8 °C 8.6 °C 1001.6 hPa WNW 10.9 km/h 14.8 km/h 86 % 0.25 mm
00:21 10.8 °C 8.6 °C 1001.2 hPa WNW 6.4 km/h 6.4 km/h 86 % 0.25 mm
00:26 10.7 °C 8.5 °C 1001.2 hPa WNW 5.8 km/h 13 km/h 86 % 0.25 mm
00:31 10.7 °C 8.5 °C 1001.2 hPa WNW 9 km/h 11.1 km/h 86 % 0.25 mm
00:36 10.8 °C 8.4 °C 1001.6 hPa WNW 5 km/h 14.8 km/h 85 % 0.25 mm
00:41 10.9 °C 8.2 °C 1001.6 hPa WNW 8.9 km/h 11.3 km/h 83 % 0.25 mm
00:46 11.1 °C 7.9 °C 1001.2 hPa West 12.7 km/h 16.7 km/h 81 % 0.25 mm
00:51 11.3 °C 7.9 °C 1001.2 hPa WNW 17.4 km/h 22.2 km/h 80 % 0.25 mm
00:56 11.5 °C 7.8 °C 1001.2 hPa WNW 15.8 km/h 18.5 km/h 78 % 0 mm
01:01 11.5 °C 7.8 °C 1000.9 hPa North 16.4 km/h 20.4 km/h 78 % 0 mm
01:06 11.6 °C 7.8 °C 1001.2 hPa West 17.4 km/h 25.7 km/h 78 % 0 mm
01:11 11.7 °C 7.8 °C 1001.2 hPa West 13.2 km/h 20.9 km/h 77 % 0 mm
01:16 11.7 °C 7.8 °C 1001.2 hPa WNW 11.6 km/h 22.2 km/h 77 % 0 mm
01:21 11.8 °C 7.7 °C 1001.6 hPa WNW 16.1 km/h 24.1 km/h 76 % 0 mm
01:26 11.9 °C 7.8 °C 1001.6 hPa WNW 26.1 km/h 40.7 km/h 76 % 0 mm
01:31 11.9 °C 7.8 °C 1001.6 hPa WNW 15.8 km/h 31.5 km/h 76 % 0 mm
01:36 11.8 °C 7.9 °C 1001.6 hPa WNW 14.3 km/h 24.1 km/h 77 % 0 mm
01:41 11.7 °C 8 °C 1001.6 hPa WNW 22.5 km/h 31.5 km/h 78 % 0 mm
01:46 11.7 °C 8.2 °C 1001.2 hPa West 16.1 km/h 24.1 km/h 79 % 0 mm
01:51 11.8 °C 8.1 °C 1001.2 hPa West 16.6 km/h 22.2 km/h 78 % 0 mm
01:56 11.9 °C 8 °C 1001.6 hPa West 21.4 km/h 31.5 km/h 77 % 0 mm
02:01 11.9 °C 8 °C 1001.2 hPa West 11.7 km/h 16.7 km/h 77 % 0 mm
02:06 11.8 °C 8.1 °C 1001.2 hPa West 10.1 km/h 16.1 km/h 78 % 0 mm
02:11 11.8 °C 7.9 °C 1001.2 hPa West 8.5 km/h 18.5 km/h 77 % 0 mm
02:16 11.8 °C 7.9 °C 1001.6 hPa West 13.4 km/h 20.4 km/h 77 % 0 mm
02:21 11.9 °C 7.8 °C 1001.6 hPa West 15.8 km/h 25.9 km/h 76 % 0 mm
02:26 12 °C 7.9 °C 1001.6 hPa West 10 km/h 13 km/h 76 % 0 mm
02:31 12 °C 7.9 °C 1001.6 hPa West 10.1 km/h 13 km/h 76 % 0 mm
02:36 12 °C 8.1 °C 1001.2 hPa WSW 13.7 km/h 17.7 km/h 77 % 0 mm
02:41 12 °C 8.1 °C 1000.9 hPa West 10 km/h 13 km/h 77 % 0 mm
02:46 11.9 °C 8.1 °C 1000.9 hPa West 11.1 km/h 13 km/h 77 % 0 mm
02:51 12.1 °C 8.2 °C 1000.9 hPa West 11.4 km/h 16.7 km/h 77 % 0 mm
02:56 12.2 °C 8.1 °C 1000.6 hPa WSW 13 km/h 16.7 km/h 76 % 0 mm
03:01 12.3 °C 8.2 °C 1000.6 hPa West 16.3 km/h 24.1 km/h 76 % 0 mm
03:06 12.4 °C 8.3 °C 1000.6 hPa West 18.3 km/h 18.5 km/h 76 % 0 mm
03:11 12.4 °C 8.3 °C 1000.6 hPa West 15.1 km/h 18.5 km/h 76 % 0 mm
03:16 12.4 °C 8.3 °C 1000.6 hPa West 9.7 km/h 14.8 km/h 76 % 0 mm
03:21 12.3 °C 8.4 °C 1000.6 hPa WSW 10.6 km/h 18.5 km/h 77 % 0 mm
03:26 12.3 °C 8.3 °C 1000.6 hPa West 16.9 km/h 29.6 km/h 77 % 0 mm
03:32 12.4 °C 8.4 °C 1000.6 hPa WNW 14.8 km/h 20.4 km/h 77 % 0 mm
03:37 12.4 °C 8.4 °C 1000.6 hPa WNW 13.4 km/h 18.5 km/h 77 % 0 mm
03:42 12.4 °C 8.4 °C 1000.6 hPa West 13.8 km/h 18.5 km/h 77 % 0 mm
03:47 12.4 °C 8.5 °C 1000.6 hPa WNW 14 km/h 27.8 km/h 77 % 0 mm
03:52 12.5 °C 8.6 °C 1000.2 hPa West 15.4 km/h 20.4 km/h 77 % 0 mm
03:57 12.6 °C 8.6 °C 1000.6 hPa West 14.6 km/h 24.1 km/h 77 % 0 mm
04:02 12.4 °C 8.7 °C 1000.6 hPa West 10.3 km/h 16.7 km/h 78 % 0 mm
04:07 12.2 °C 8.9 °C 1000.2 hPa West 13.4 km/h 19.3 km/h 80 % 0 mm
04:12 12.4 °C 8.8 °C 1000.6 hPa West 26.2 km/h 33.3 km/h 79 % 0 mm
04:17 12.4 °C 8.8 °C 1000.6 hPa WNW 18.2 km/h 31.5 km/h 79 % 0 mm
04:21 12.4 °C 8.8 °C 1000.6 hPa West 7.7 km/h 14.8 km/h 79 % 0 mm
04:26 12.4 °C 8.7 °C 1000.6 hPa West 18.5 km/h 29 km/h 78 % 0 mm
04:31 12.6 °C 8.8 °C 1000.9 hPa WSW 17.7 km/h 25.7 km/h 78 % 0 mm
04:36 12.6 °C 8.7 °C 1000.6 hPa West 13 km/h 20.9 km/h 77 % 0 mm
04:41 12.8 °C 8.7 °C 1000.2 hPa West 17.9 km/h 27.8 km/h 76 % 0 mm
04:46 12.9 °C 8.6 °C 1000.6 hPa West 15.6 km/h 38.9 km/h 75 % 0 mm
04:51 13 °C 8.4 °C 1000.6 hPa West 17.4 km/h 25.9 km/h 74 % 0 mm
04:56 13 °C 8.4 °C 1000.6 hPa West 15.1 km/h 24.1 km/h 74 % 0 mm
05:01 13 °C 8.4 °C 1000.9 hPa West 13.8 km/h 22.2 km/h 74 % 0 mm
05:06 12.9 °C 8.4 °C 1000.9 hPa WNW 10.6 km/h 14.8 km/h 74 % 0 mm
05:11 12.9 °C 8.6 °C 1000.9 hPa WNW 13 km/h 16.7 km/h 75 % 0 mm
05:16 12.9 °C 8.8 °C 1000.9 hPa WNW 8.5 km/h 11.1 km/h 76 % 0 mm
05:21 12.8 °C 8.7 °C 1000.9 hPa West 13.5 km/h 20.4 km/h 76 % 0 mm
05:26 12.8 °C 8.8 °C 1000.9 hPa West 13.7 km/h 18.5 km/h 77 % 0 mm
05:31 12.8 °C 8.8 °C 1000.9 hPa West 13.8 km/h 16.7 km/h 77 % 0 mm
05:36 12.8 °C 8.8 °C 1000.9 hPa WNW 17.5 km/h 20.4 km/h 77 % 0 mm
05:41 12.8 °C 8.9 °C 1001.2 hPa West 8.9 km/h 12.9 km/h 77 % 0 mm
05:46 12.9 °C 8.9 °C 1001.2 hPa West 13.2 km/h 24.1 km/h 77 % 0 mm
05:51 12.9 °C 9.2 °C 1001.2 hPa WNW 12.4 km/h 25.7 km/h 78 % 0 mm
05:56 12.9 °C 9.2 °C 1001.2 hPa West 7.7 km/h 11.3 km/h 78 % 0 mm
06:01 12.9 °C 9.2 °C 1001.2 hPa West 10.6 km/h 16.7 km/h 78 % 0 mm
06:06 12.9 °C 9.2 °C 1001.2 hPa West 13.2 km/h 24.1 km/h 78 % 0 mm
06:11 13.1 °C 9.3 °C 1001.2 hPa WNW 13.2 km/h 18.5 km/h 78 % 0 mm
06:16 13.2 °C 9.2 °C 1001.2 hPa WNW 7.9 km/h 11.1 km/h 77 % 0 mm
06:21 13.1 °C 9.2 °C 1001.2 hPa WNW 6.9 km/h 11.3 km/h 77 % 0 mm
06:26 13.1 °C 9.1 °C 1001.6 hPa NW 9.5 km/h 16.7 km/h 77 % 0 mm
06:31 13 °C 9.3 °C 1001.2 hPa NW 6.8 km/h 11.1 km/h 78 % 0 mm
06:36 12.9 °C 9.2 °C 1001.2 hPa NW 6.9 km/h 11.3 km/h 78 % 0 mm
06:41 13 °C 9.3 °C 1001.2 hPa NW 8.9 km/h 14.8 km/h 78 % 0 mm
06:46 12.9 °C 9.4 °C 1001.6 hPa NW 3.9 km/h 9.3 km/h 79 % 0 mm
06:51 12.7 °C 9.3 °C 1001.6 hPa NW 5.1 km/h 8 km/h 80 % 0 mm
06:56 12.5 °C 9.5 °C 1001.6 hPa NW 6.9 km/h 11.1 km/h 82 % 0 mm
07:01 12.3 °C 9.5 °C 1001.6 hPa NW 7.4 km/h 13 km/h 83 % 0 mm
07:06 12.3 °C 9.5 °C 1001.2 hPa NW 9 km/h 13 km/h 83 % 0 mm
07:11 12.3 °C 9.7 °C 1001.2 hPa NNW 9.8 km/h 14.8 km/h 84 % 0 mm
07:16 12.3 °C 9.8 °C 1001.2 hPa NNW 10.9 km/h 16.7 km/h 85 % 0 mm
07:21 12.3 °C 9.9 °C 1001.2 hPa NNW 9.2 km/h 14.8 km/h 85 % 0 mm
07:26 12.3 °C 9.9 °C 1001.6 hPa NNW 6 km/h 13 km/h 85 % 0 mm
07:31 12.4 °C 10.1 °C 1001.6 hPa NNW 9.8 km/h 16.7 km/h 86 % 0 mm
07:36 12.4 °C 10.1 °C 1001.6 hPa North 13.5 km/h 22.2 km/h 86 % 0 mm
07:41 12.4 °C 10.2 °C 1001.6 hPa NW 9.2 km/h 13 km/h 86 % 0 mm
07:46 12.5 °C 10.2 °C 1001.9 hPa NNW 6.9 km/h 16.7 km/h 86 % 0 mm
07:51 12.4 °C 10.2 °C 1001.9 hPa North 10.6 km/h 18.5 km/h 86 % 0 mm
07:56 12.4 °C 10.3 °C 1001.9 hPa NW 4.8 km/h 9.3 km/h 87 % 0 mm
08:01 12.3 °C 10.2 °C 1002.3 hPa North 10.1 km/h 18.5 km/h 87 % 0 mm
08:06 12.3 °C 10.4 °C 1002.3 hPa NE 3.9 km/h 14.8 km/h 88 % 0 mm
08:11 12.4 °C 10.4 °C 1002.6 hPa NW 5.6 km/h 7.4 km/h 88 % 0 mm
08:16 12.4 °C 10.6 °C 1002.6 hPa NNW 9.3 km/h 14.8 km/h 89 % 0 mm
08:21 12.4 °C 10.7 °C 1002.9 hPa NW 4.3 km/h 7.4 km/h 89 % 0 mm
08:26 12.4 °C 10.7 °C 1002.9 hPa NW 6.6 km/h 11.1 km/h 89 % 0 mm
08:31 12.5 °C 10.9 °C 1002.9 hPa NW 8.4 km/h 13 km/h 90 % 0 mm
08:36 12.6 °C 10.9 °C 1002.9 hPa NW 5.5 km/h 11.1 km/h 90 % 0 mm
08:41 12.7 °C 11.1 °C 1003.3 hPa North 6.8 km/h 9.7 km/h 90 % 0 mm
08:46 12.8 °C 11.4 °C 1003.3 hPa WNW 11.1 km/h 11.1 km/h 91 % 0 mm
08:51 13.1 °C 11.4 °C 1003.3 hPa NW 6.8 km/h 11.1 km/h 90 % 0 mm
08:56 13.2 °C 11.4 °C 1003.3 hPa NW 8.9 km/h 13 km/h 89 % 0 mm
09:01 13.3 °C 11.5 °C 1003.3 hPa WNW 9.5 km/h 14.8 km/h 89 % 0 mm
09:06 13.4 °C 11.6 °C 1003.6 hPa WNW 11.3 km/h 16.7 km/h 89 % 0 mm
09:11 13.4 °C 11.7 °C 1003.6 hPa WNW 7.7 km/h 11.3 km/h 89 % 0 mm
09:16 13.4 °C 11.5 °C 1003.6 hPa NW 5 km/h 13 km/h 88 % 0 mm
09:21 13.6 °C 11.6 °C 1003.6 hPa NW 4.5 km/h 11.1 km/h 88 % 0 mm
09:26 13.7 °C 11.7 °C 1003.6 hPa NW 5.1 km/h 9.3 km/h 88 % 0 mm
09:31 13.8 °C 11.8 °C 1003.6 hPa WNW 10 km/h 13 km/h 88 % 0 mm
09:36 13.8 °C 11.7 °C 1003.9 hPa NW 4.7 km/h 7.4 km/h 87 % 0 mm
09:41 13.9 °C 11.8 °C 1003.9 hPa WNW 10 km/h 14.8 km/h 87 % 0 mm
09:46 13.9 °C 11.8 °C 1003.9 hPa WNW 7.2 km/h 8 km/h 87 % 0 mm
09:51 13.9 °C 11.9 °C 1003.9 hPa WNW 6.1 km/h 9.3 km/h 88 % 0 mm
09:56 13.8 °C 11.9 °C 1004.3 hPa WNW 2.4 km/h 7.4 km/h 88 % 0 mm
10:01 13.9 °C 12.2 °C 1004.3 hPa North 2.9 km/h 5.6 km/h 89 % 0.25 mm
10:06 13.9 °C 12.2 °C 1004.3 hPa WNW 10.6 km/h 14.8 km/h 89 % 0.25 mm
10:11 14.1 °C 12.3 °C 1004.3 hPa WNW 1.3 km/h 3.7 km/h 89 % 0.25 mm
10:16 14.3 °C 12.5 °C 1004.3 hPa WNW 1.8 km/h 5.6 km/h 89 % 0.25 mm
10:21 14.4 °C 12.4 °C 1004.3 hPa WNW 4.8 km/h 8 km/h 88 % 0.25 mm
10:26 14.5 °C 12.2 °C 1004.3 hPa West 13 km/h 27.8 km/h 86 % 0.25 mm
10:31 14.9 °C 11.7 °C 1004.3 hPa West 18.7 km/h 31.5 km/h 81 % 0.25 mm
10:36 15.3 °C 11.7 °C 1004.3 hPa West 16.6 km/h 22.2 km/h 79 % 0.25 mm
10:41 15.5 °C 11.7 °C 1004.3 hPa WNW 21.4 km/h 30.6 km/h 78 % 0.25 mm
10:46 15.6 °C 11.4 °C 1004.3 hPa West 14.3 km/h 29.6 km/h 76 % 0.25 mm
10:51 15.7 °C 11.7 °C 1004.3 hPa West 13.2 km/h 18.5 km/h 77 % 0.25 mm
10:56 15.8 °C 11.6 °C 1004.6 hPa WNW 11.7 km/h 16.7 km/h 76 % 0.25 mm
11:01 15.8 °C 11.6 °C 1004.6 hPa West 10.3 km/h 18.5 km/h 76 % 0 mm
11:06 16 °C 11.8 °C 1004.6 hPa WNW 14.3 km/h 18.5 km/h 76 % 0 mm
11:11 15.9 °C 11.5 °C 1004.3 hPa WNW 14 km/h 18.5 km/h 75 % 0 mm
11:16 15.9 °C 11.4 °C 1004.6 hPa WNW 13.4 km/h 20.4 km/h 75 % 0 mm
11:21 15.8 °C 11.4 °C 1004.6 hPa West 10.8 km/h 14.8 km/h 75 % 0 mm
11:26 15.9 °C 11.4 °C 1004.6 hPa WNW 9.2 km/h 11.1 km/h 75 % 0 mm
11:31 15.9 °C 11.5 °C 1004.6 hPa North 11.9 km/h 22.5 km/h 75 % 0 mm
11:36 16.1 °C 11.6 °C 1004.6 hPa WNW 12.6 km/h 18.5 km/h 75 % 0 mm
11:41 16.2 °C 11.8 °C 1004.6 hPa WNW 8.5 km/h 12.9 km/h 75 % 0 mm
11:46 16.3 °C 11.7 °C 1004.6 hPa West 14 km/h 18.5 km/h 74 % 0 mm
11:51 16.2 °C 11.8 °C 1004.6 hPa WNW 3.7 km/h 9.3 km/h 75 % 0 mm
11:56 16.2 °C 11.8 °C 1004.6 hPa West 16.1 km/h 18.5 km/h 75 % 0 mm
12:01 16.3 °C 11.7 °C 1005 hPa West 16.1 km/h 25.9 km/h 74 % 0 mm
12:06 16.4 °C 11.7 °C 1005 hPa West 9.5 km/h 18.5 km/h 74 % 0 mm
12:11 16.4 °C 11.8 °C 1005 hPa WNW 5.5 km/h 13 km/h 74 % 0 mm
12:16 16.4 °C 11.6 °C 1005 hPa West 18 km/h 22.2 km/h 73 % 0 mm
12:21 16.3 °C 11.7 °C 1005 hPa West 8.7 km/h 14.8 km/h 74 % 0 mm
12:26 16.3 °C 11.7 °C 1005 hPa WNW 12.6 km/h 24.1 km/h 74 % 0 mm
12:31 16.6 °C 12.2 °C 1005 hPa WNW 6.6 km/h 11.3 km/h 75 % 0 mm
12:36 16.8 °C 11.9 °C 1004.6 hPa WNW 13.2 km/h 20.4 km/h 73 % 0 mm
12:41 16.8 °C 11.8 °C 1004.6 hPa WNW 12.4 km/h 18.5 km/h 72 % 0 mm
12:46 16.7 °C 11.8 °C 1004.6 hPa WNW 15.8 km/h 18.5 km/h 73 % 0 mm
12:51 16.7 °C 11.8 °C 1004.6 hPa West 7.1 km/h 13 km/h 73 % 0 mm
12:56 16.6 °C 11.7 °C 1005 hPa NW 13.2 km/h 20.4 km/h 73 % 0 mm
13:01 16.4 °C 11.6 °C 1004.6 hPa WNW 12.6 km/h 18.5 km/h 73 % 0 mm
13:06 16.4 °C 11.7 °C 1004.6 hPa WNW 15.1 km/h 27.8 km/h 74 % 0 mm
13:11 16.3 °C 11.9 °C 1004.6 hPa WNW 8 km/h 18.5 km/h 75 % 0 mm
13:16 16.6 °C 12.1 °C 1004.6 hPa WNW 11.7 km/h 18.5 km/h 75 % 0 mm
13:21 16.7 °C 12 °C 1004.6 hPa WNW 10.1 km/h 13 km/h 74 % 0 mm
13:26 16.4 °C 12.2 °C 1004.6 hPa WNW 15.3 km/h 20.4 km/h 76 % 0 mm
13:31 16.2 °C 12.4 °C 1004.6 hPa North 13.5 km/h 18.5 km/h 78 % 0 mm
13:36 16.2 °C 12.5 °C 1004.6 hPa NW 11.1 km/h 14.8 km/h 79 % 0 mm
13:41 16.2 °C 12.5 °C 1004.6 hPa WNW 9.5 km/h 18.5 km/h 79 % 0 mm
13:46 16.3 °C 12.4 °C 1004.6 hPa WNW 15.3 km/h 18.5 km/h 78 % 0 mm
13:51 16.6 °C 12.5 °C 1004.6 hPa NW 9.3 km/h 14.8 km/h 77 % 0 mm
13:56 16.9 °C 12.4 °C 1004.6 hPa West 13.8 km/h 18.5 km/h 75 % 0 mm
14:01 16.9 °C 12.3 °C 1004.6 hPa WNW 16.3 km/h 25.9 km/h 74 % 0 mm
14:06 16.8 °C 12.2 °C 1004.6 hPa NW 16.3 km/h 22.5 km/h 74 % 0 mm
14:11 16.8 °C 12.1 °C 1004.6 hPa WNW 14.2 km/h 22.2 km/h 74 % 0 mm
14:16 16.8 °C 12.3 °C 1004.6 hPa NW 9.7 km/h 12.9 km/h 75 % 0 mm
14:21 16.9 °C 12.2 °C 1004.6 hPa WNW 12.9 km/h 17.7 km/h 74 % 0 mm
14:26 16.9 °C 12.2 °C 1004.6 hPa West 8.9 km/h 18.5 km/h 74 % 0 mm
14:31 16.9 °C 12.2 °C 1004.6 hPa WNW 13 km/h 20.4 km/h 74 % 0 mm
14:36 16.9 °C 12.1 °C 1005 hPa West 10 km/h 18.5 km/h 73 % 0 mm
14:41 17 °C 12.1 °C 1005 hPa WNW 8.7 km/h 9.3 km/h 73 % 0 mm
14:46 16.9 °C 12 °C 1005 hPa WNW 13.5 km/h 18.5 km/h 73 % 0 mm
14:52 16.8 °C 12.2 °C 1005 hPa WNW 21.2 km/h 24.1 km/h 74 % 0 mm
14:56 16.8 °C 12.1 °C 1005 hPa WNW 10.9 km/h 20.9 km/h 74 % 0 mm
15:02 16.7 °C 12.3 °C 1005 hPa WNW 13.2 km/h 20.4 km/h 75 % 0 mm
15:07 16.7 °C 12.4 °C 1005.3 hPa WNW 12.7 km/h 20.4 km/h 76 % 0 mm
15:12 16.5 °C 12.4 °C 1005.3 hPa West 11.6 km/h 16.7 km/h 77 % 0 mm
15:17 16.4 °C 12.6 °C 1005.3 hPa WNW 5.6 km/h 9.7 km/h 78 % 0 mm
15:22 16.5 °C 12.7 °C 1005.3 hPa WNW 7.7 km/h 14.8 km/h 78 % 0 mm
15:27 16.6 °C 12.8 °C 1005.3 hPa West 13 km/h 18.5 km/h 78 % 0 mm
15:32 16.6 °C 12.6 °C 1005.3 hPa North 7.7 km/h 20.4 km/h 77 % 0 mm
15:37 16.7 °C 12.6 °C 1005.6 hPa West 10.5 km/h 18.5 km/h 77 % 0 mm
15:42 16.7 °C 12.6 °C 1005.6 hPa West 2.6 km/h 5.6 km/h 77 % 0 mm
15:47 16.7 °C 12.6 °C 1005.6 hPa West 11.4 km/h 14.8 km/h 77 % 0 mm
15:52 16.7 °C 12.6 °C 1006 hPa WNW 9.7 km/h 9.7 km/h 77 % 0 mm
15:57 16.3 °C 12.7 °C 1006 hPa WNW 6.6 km/h 11.1 km/h 79 % 0 mm
16:02 16.1 °C 12.8 °C 1006 hPa WNW 6 km/h 8 km/h 81 % 0 mm
16:07 16 °C 12.9 °C 1006 hPa WNW 7.6 km/h 9.3 km/h 82 % 0 mm
16:12 15.9 °C 12.9 °C 1006.3 hPa North 8.2 km/h 11.1 km/h 82 % 0 mm
16:17 15.8 °C 12.9 °C 1006.3 hPa WNW 6.4 km/h 9.3 km/h 83 % 0 mm
16:22 15.8 °C 12.9 °C 1006.3 hPa WNW 5 km/h 5.6 km/h 83 % 0 mm
16:27 15.7 °C 12.9 °C 1006.3 hPa WNW 4.5 km/h 9.3 km/h 84 % 0 mm
16:32 15.7 °C 12.9 °C 1006.3 hPa WNW 5.8 km/h 7.4 km/h 84 % 0 mm
16:37 15.7 °C 13.2 °C 1006.3 hPa WNW 3.9 km/h 5.6 km/h 85 % 0 mm
16:42 15.7 °C 13.2 °C 1006.3 hPa WNW 5.5 km/h 7.4 km/h 85 % 0 mm
16:47 15.7 °C 13.2 °C 1006.3 hPa WNW 5.3 km/h 7.4 km/h 85 % 0 mm
16:52 15.7 °C 13.2 °C 1006.3 hPa WNW 4.8 km/h 8 km/h 85 % 0 mm
16:57 15.7 °C 13 °C 1006.3 hPa WNW 6.8 km/h 7.4 km/h 84 % 0 mm
17:02 15.8 °C 13.1 °C 1006.3 hPa WNW 5.8 km/h 9.3 km/h 84 % 0 mm
17:07 15.8 °C 13.1 °C 1006.3 hPa WNW 4.3 km/h 7.4 km/h 84 % 0 mm
17:12 15.8 °C 12.9 °C 1006.3 hPa WNW 3.4 km/h 5.6 km/h 83 % 0 mm
17:17 15.9 °C 13 °C 1006.3 hPa NW 8.4 km/h 11.1 km/h 83 % 0 mm
17:22 15.8 °C 12.8 °C 1006.3 hPa NW 6.3 km/h 11.3 km/h 82 % 0 mm
17:27 15.9 °C 12.8 °C 1006.3 hPa WNW 9.7 km/h 16.7 km/h 82 % 0 mm
17:32 15.9 °C 12.8 °C 1006.7 hPa WNW 9.7 km/h 16.7 km/h 82 % 0 mm
17:37 15.9 °C 12.8 °C 1006.7 hPa WNW 7.4 km/h 14.5 km/h 82 % 0 mm
17:42 15.9 °C 12.8 °C 1006.7 hPa WNW 13.2 km/h 22.2 km/h 82 % 0 mm
17:47 15.8 °C 12.8 °C 1006.7 hPa WNW 8 km/h 13 km/h 82 % 0 mm
17:52 15.8 °C 12.7 °C 1007 hPa WNW 6.8 km/h 9.7 km/h 82 % 0 mm
17:57 15.7 °C 12.8 °C 1007 hPa West 4.3 km/h 9.3 km/h 83 % 0 mm
18:02 15.7 °C 12.8 °C 1007 hPa West 6.9 km/h 9.7 km/h 83 % 0 mm
18:07 15.7 °C 12.8 °C 1007 hPa West 4.2 km/h 5.6 km/h 83 % 0 mm
18:12 15.6 °C 12.7 °C 1007 hPa WNW 8.2 km/h 13 km/h 83 % 0 mm
18:17 15.7 °C 12.8 °C 1007.3 hPa WNW 4.8 km/h 7.4 km/h 83 % 0 mm
18:22 15.7 °C 12.8 °C 1007.3 hPa North 6.6 km/h 13 km/h 83 % 0 mm
18:27 15.7 °C 12.8 °C 1007.3 hPa WNW 2.7 km/h 5.6 km/h 83 % 0 mm
18:32 15.7 °C 12.6 °C 1007.7 hPa WNW 0.8 km/h 1.9 km/h 82 % 0 mm
18:37 15.6 °C 12.6 °C 1007.7 hPa WNW 0.5 km/h 1.9 km/h 82 % 0 mm
18:42 15.6 °C 12.7 °C 1007.7 hPa WNW 1 km/h 5.6 km/h 83 % 0 mm
18:47 15.6 °C 12.7 °C 1007.7 hPa WNW 4 km/h 6.4 km/h 83 % 0 mm
18:52 15.6 °C 12.7 °C 1008 hPa WNW 1.1 km/h 1.9 km/h 83 % 0 mm
18:57 15.5 °C 12.6 °C 1008 hPa WNW 0.5 km/h 1.9 km/h 83 % 0 mm
19:02 15.5 °C 12.6 °C 1008 hPa Calm     83 % 0 mm
19:07 15.4 °C 12.8 °C 1008 hPa Calm     84 % 0 mm
19:12 15.4 °C 12.6 °C 1008 hPa WNW 0.2 km/h 1.9 km/h 83 % 0 mm
19:17 15.3 °C 12.4 °C 1008 hPa Calm   1.9 km/h 83 % 0 mm
19:22 15.3 °C 12.4 °C 1008 hPa WNW 0.2 km/h 3.7 km/h 83 % 0 mm
19:27 15.3 °C 12.4 °C 1008 hPa North 2.7 km/h 5.6 km/h 83 % 0 mm
19:32 15.3 °C 12.3 °C 1008 hPa WNW 1.3 km/h 3.7 km/h 82 % 0 mm
19:37 15.3 °C 12.3 °C 1008 hPa WNW 0.3 km/h 1.9 km/h 82 % 0 mm
19:42 15.4 °C 12.2 °C 1008 hPa WNW 2.3 km/h 5.6 km/h 81 % 0 mm
19:47 15.4 °C 12.2 °C 1008 hPa WNW 3.5 km/h 5.6 km/h 81 % 0 mm
19:52 15.5 °C 12.1 °C 1008.4 hPa WNW 1.6 km/h 3.7 km/h 80 % 0 mm
19:57 15.5 °C 12.1 °C 1008.4 hPa WNW 0.5 km/h 1.9 km/h 80 % 0 mm
20:02 15.5 °C 12.1 °C 1008.4 hPa WNW 0.3 km/h 1.9 km/h 80 % 0 mm
20:07 15.5 °C 12.1 °C 1008.4 hPa WNW 1.6 km/h 3.7 km/h 80 % 0 mm
20:12 15.5 °C 12.1 °C 1008.4 hPa WNW 2.1 km/h 5.6 km/h 80 % 0 mm
20:17 15.5 °C 12.1 °C 1008.4 hPa WNW 8.5 km/h 11.1 km/h 80 % 0 mm
20:22 15.6 °C 12.1 °C 1008.4 hPa North 1 km/h 3.7 km/h 80 % 0 mm
20:27 15.6 °C 12.1 °C 1008.4 hPa WNW 4.5 km/h 7.4 km/h 80 % 0 mm
20:32 15.4 °C 12.2 °C 1008.7 hPa WNW 5.1 km/h 8 km/h 81 % 0 mm
20:37 15.4 °C 12.3 °C 1008.7 hPa North 2.3 km/h 5.6 km/h 82 % 0 mm
20:42 15.2 °C 12.3 °C 1008.7 hPa NW 0.8 km/h 5.6 km/h 83 % 0 mm
20:47 15.2 °C 12.5 °C 1008.7 hPa NW 5.3 km/h 9.3 km/h 84 % 0 mm
20:52 15.1 °C 12.6 °C 1008.7 hPa NW 4.2 km/h 5.6 km/h 85 % 0 mm
20:57 15 °C 12.3 °C 1008.7 hPa NW 4.3 km/h 11.1 km/h 84 % 0 mm
21:02 15 °C 12.3 °C 1008.7 hPa NW 5.5 km/h 9.3 km/h 84 % 0 mm
21:07 15 °C 12.3 °C 1008.7 hPa North 6.8 km/h 11.1 km/h 84 % 0 mm
21:12 15 °C 12.3 °C 1008.7 hPa North 7.1 km/h 9.3 km/h 84 % 0 mm
21:17 15.1 °C 12.4 °C 1009 hPa NW 6.4 km/h 9.3 km/h 84 % 0 mm
21:22 15 °C 12.3 °C 1009 hPa North 6.8 km/h 9.3 km/h 84 % 0 mm
21:27 15 °C 12.1 °C 1009 hPa North 6.1 km/h 11.1 km/h 83 % 0 mm
21:32 15 °C 12.3 °C 1009 hPa NW 5.5 km/h 7.4 km/h 84 % 0 mm
21:37 14.9 °C 12.3 °C 1009 hPa North 2.4 km/h 5.6 km/h 84 % 0 mm
21:42 14.9 °C 12.3 °C 1009 hPa North 2.6 km/h 6.4 km/h 84 % 0 mm
21:47 14.9 °C 12.3 °C 1008.7 hPa North 6.9 km/h 9.3 km/h 84 % 0 mm
21:52 14.9 °C 12.3 °C 1009 hPa NW 6 km/h 14.8 km/h 84 % 0 mm
21:57 14.9 °C 12.1 °C 1009 hPa NW 9.8 km/h 18.5 km/h 83 % 0 mm
22:02 14.9 °C 12.1 °C 1009 hPa WNW 6.6 km/h 9.3 km/h 83 % 0 mm
22:07 15 °C 12.1 °C 1009 hPa North 12.2 km/h 18.5 km/h 83 % 0 mm
22:12 15 °C 12.1 °C 1009 hPa NW 9.7 km/h 14.8 km/h 83 % 0 mm
22:17 15 °C 11.9 °C 1009 hPa NW 14.5 km/h 18.5 km/h 82 % 0 mm
22:22 15 °C 11.9 °C 1009 hPa WNW 10.1 km/h 18.5 km/h 82 % 0 mm
22:27 15 °C 11.9 °C 1009 hPa WNW 11.4 km/h 14.8 km/h 82 % 0 mm
22:32 15 °C 11.9 °C 1009 hPa WNW 5.1 km/h 11.1 km/h 82 % 0 mm
22:37 15 °C 11.9 °C 1009 hPa West 9.8 km/h 17.7 km/h 82 % 0 mm
22:42 14.9 °C 11.9 °C 1009 hPa WNW 12.4 km/h 18.5 km/h 82 % 0 mm
22:47 14.9 °C 11.8 °C 1009 hPa West 14.6 km/h 20.9 km/h 82 % 0 mm
22:52 14.9 °C 11.8 °C 1009 hPa WNW 9.7 km/h 16.7 km/h 82 % 0 mm
22:57 14.9 °C 11.8 °C 1009 hPa WNW 11.4 km/h 18.5 km/h 82 % 0 mm
23:02 14.8 °C 11.8 °C 1009 hPa WNW 11.3 km/h 16.7 km/h 82 % 0 mm
23:07 14.8 °C 11.8 °C 1008.7 hPa WNW 12.1 km/h 22.2 km/h 82 % 0 mm
23:12 14.8 °C 11.7 °C 1009 hPa NW 14.3 km/h 18.5 km/h 82 % 0 mm
23:17 14.8 °C 11.7 °C 1008.7 hPa WNW 8.9 km/h 11.3 km/h 82 % 0 mm
23:22 14.7 °C 11.7 °C 1008.7 hPa North 7.2 km/h 13 km/h 82 % 0 mm
23:27 14.6 °C 11.7 °C 1008.7 hPa WNW 14.8 km/h 17.7 km/h 83 % 0 mm
23:32 14.5 °C 11.7 °C 1008.7 hPa WNW 8.2 km/h 13 km/h 83 % 0 mm
23:37 14.4 °C 11.6 °C 1008.7 hPa West 10.6 km/h 19.3 km/h 83 % 0 mm
23:42 14.4 °C 11.8 °C 1008.7 hPa WNW 12.1 km/h 18.5 km/h 84 % 0 mm
23:47 14.4 °C 11.8 °C 1008.7 hPa NW 9.8 km/h 16.7 km/h 84 % 0 mm
23:52 14.4 °C 11.6 °C 1008.7 hPa North 2.6 km/h 5.6 km/h 83 % 0 mm
23:57 14.4 °C 11.7 °C 1008.7 hPa North 4.7 km/h 5.6 km/h 84 % 0 mm
Ararat Weather
Compliments of Weather Underground - 2.25 mb
Click here to send mail.


ABOUT

Live weather data from Ararat, Victoria, Australia, 3377
Data uploaded from Cumulus every 5 minutes to Weather Underground.
This site then downloads the raw data for formatting and display.
Metric and imperial data can be displayed. Graphs and historical data available.
Includes Sun and Moon times and rain image live from BOM.

Check out Ararat Weather on Facebook, Twitter and Google +

Help support ongoing costs by checking out the ads





Follow @AraratWeather